Terminal Aerodrome Forecast
Issued by NWS

Home | Current Version | Previous Version | Graphics & Text | Print | Product List | Glossary On
Versions: 1 2 3 4 5 6 7 8 9 10 11 12 13 14 15 16 17 18 19 20 21 22
000
FTUS43 KBIS 301300 AAA
TAFMOT
TAF AMD
KMOT 301305Z 3013/0112 09011KT 4SM BR OVC004
     FM301600 11010KT 4SM -SHRA BKN008 OVC015
     FM301800 10013KT P6SM -SHRA OVC015
     FM010300 36010KT 4SM -SHRA BR OVC008
     FM010700 30012KT 6SM -SHRA BR BKN008 OVC015=

USA.gov is the U.S. government's official web portal to all federal, state and local government web resources and services.